createdAt,value
2019-01-24T00:01:36.903Z,66.25
2019-01-24T00:04:07.727Z,64.07
2019-01-24T00:06:38.585Z,64.82
2019-01-24T00:09:10.380Z,65.60
2019-01-24T00:11:41.224Z,65.35
2019-01-24T00:14:12.278Z,64.95
2019-01-24T00:16:43.298Z,65.40
2019-01-24T00:19:14.160Z,66.37
2019-01-24T00:21:45.167Z,65.00
2019-01-24T00:24:16.069Z,66.57
2019-01-24T00:26:46.802Z,65.15
2019-01-24T00:29:18.164Z,66.00
2019-01-24T00:31:49.004Z,65.83
2019-01-24T00:34:23.289Z,64.53
2019-01-24T00:36:52.753Z,67.25
2019-01-24T00:39:23.891Z,64.85
2019-01-24T00:41:54.944Z,64.12
2019-01-24T00:44:25.873Z,65.47
2019-01-24T00:46:56.755Z,68.17
2019-01-24T00:49:27.600Z,65.67
2019-01-24T00:51:58.447Z,65.30
2019-01-24T00:54:29.650Z,64.92
2019-01-24T00:57:00.388Z,67.32
2019-01-24T00:59:31.155Z,64.67
2019-01-24T01:02:01.947Z,68.02
2019-01-24T01:04:33.102Z,65.83
2019-01-24T01:07:04.463Z,66.85
2019-01-24T01:09:35.703Z,67.90
2019-01-24T01:12:07.190Z,65.20
2019-01-24T01:14:38.123Z,62.20
2019-01-24T01:17:09.326Z,63.87
2019-01-24T01:19:40.518Z,61.83
2019-01-24T01:22:11.270Z,64.35
2019-01-24T01:24:42.142Z,62.33
2019-01-24T01:27:13.572Z,65.45
2019-01-24T01:29:45.907Z,60.50
2019-01-24T01:32:16.648Z,62.62
2019-01-24T01:34:47.652Z,60.55
2019-01-24T01:37:19.136Z,62.08
2019-01-24T01:39:50.355Z,61.20
2019-01-24T01:42:21.147Z,59.83
2019-01-24T01:44:51.978Z,58.33
2019-01-24T01:47:23.190Z,57.05
2019-01-24T01:49:54.336Z,58.10
2019-01-24T01:52:25.086Z,56.33
2019-01-24T01:54:56.534Z,60.60
2019-01-24T01:57:27.914Z,58.60
2019-01-24T01:59:58.650Z,57.65
2019-01-24T02:02:29.395Z,57.95
2019-01-24T02:05:01.076Z,59.42
2019-01-24T02:07:31.905Z,62.03
2019-01-24T02:10:03.398Z,62.65
2019-01-24T02:12:34.202Z,62.05
2019-01-24T02:15:06.478Z,64.95
2019-01-24T02:17:40.561Z,63.45
2019-01-24T02:20:17.519Z,63.68
2019-01-24T02:22:48.754Z,64.87
2019-01-24T02:25:19.923Z,63.95
2019-01-24T02:27:50.697Z,65.32
2019-01-24T02:30:26.957Z,66.15
2019-01-24T02:32:58.198Z,66.22
2019-01-24T02:35:28.978Z,63.50
2019-01-24T02:37:59.696Z,63.98
2019-01-24T02:40:30.731Z,62.00
2019-01-24T02:43:01.520Z,60.48
2019-01-24T02:45:32.635Z,62.85
2019-01-24T02:48:04.001Z,61.85
2019-01-24T02:50:35.092Z,59.03
2019-01-24T02:53:05.893Z,59.38
2019-01-24T02:55:36.835Z,59.77
2019-01-24T02:58:08.028Z,58.95
2019-01-24T03:00:38.855Z,59.57
2019-01-24T03:03:09.965Z,57.43
2019-01-24T03:05:41.100Z,59.75
2019-01-24T03:08:12.184Z,57.20
2019-01-24T03:10:43.098Z,59.53
2019-01-24T03:13:14.139Z,59.55
2019-01-24T03:15:45.022Z,64.05
2019-01-24T03:18:16.063Z,58.92
2019-01-24T03:20:46.791Z,59.53
2019-01-24T03:23:17.613Z,58.38
2019-01-24T03:25:48.774Z,61.90
2019-01-24T03:28:19.532Z,62.37
2019-01-24T03:30:50.522Z,62.88
2019-01-24T03:33:21.582Z,67.78
2019-01-24T03:35:53.448Z,67.70
2019-01-24T03:38:24.418Z,67.53
2019-01-24T03:40:55.724Z,68.87
2019-01-24T03:43:26.513Z,66.50
2019-01-24T03:45:57.266Z,66.50
2019-01-24T03:48:28.262Z,68.23
2019-01-24T03:50:59.153Z,65.80
2019-01-24T03:53:29.952Z,66.65
2019-01-24T03:56:00.755Z,66.50
2019-01-24T03:58:31.892Z,66.75
2019-01-24T04:01:03.475Z,69.00
2019-01-24T04:03:35.033Z,66.00
2019-01-24T04:06:05.996Z,68.62
2019-01-24T04:08:36.735Z,63.68
2019-01-24T04:11:07.921Z,68.52
2019-01-24T04:13:38.764Z,68.28
2019-01-24T04:16:09.771Z,66.25
2019-01-24T04:18:40.764Z,65.65
2019-01-24T04:21:11.819Z,64.40
2019-01-24T04:23:42.982Z,65.60
2019-01-24T04:26:13.775Z,65.70
2019-01-24T04:28:44.852Z,63.87
2019-01-24T04:31:16.176Z,66.50
2019-01-24T04:33:46.918Z,64.55
2019-01-24T04:36:17.733Z,65.87
2019-01-24T04:38:48.818Z,62.53
2019-01-24T04:41:19.710Z,66.62
2019-01-24T04:43:50.431Z,67.60
2019-01-24T04:46:21.308Z,65.70
2019-01-24T04:48:52.352Z,66.53
2019-01-24T04:51:23.117Z,67.05
2019-01-24T04:53:53.891Z,70.10
2019-01-24T04:56:24.828Z,67.20
2019-01-24T04:58:55.904Z,69.35
2019-01-24T05:01:26.688Z,68.52
2019-01-24T05:03:57.483Z,69.87
2019-01-24T05:06:28.687Z,65.32
2019-01-24T05:08:59.490Z,65.75
2019-01-24T05:11:30.732Z,70.03
2019-01-24T05:14:01.837Z,70.20
2019-01-24T05:16:32.595Z,67.90
2019-01-24T05:19:03.861Z,68.65
2019-01-24T05:21:34.600Z,71.80
2019-01-24T05:24:05.794Z,69.65
2019-01-24T05:26:36.565Z,70.70
2019-01-24T05:29:07.678Z,69.20
2019-01-24T05:31:38.520Z,67.90
2019-01-24T05:34:09.444Z,71.97
2019-01-24T05:36:40.226Z,69.30
2019-01-24T05:39:11.322Z,73.17
2019-01-24T05:41:42.439Z,71.33
2019-01-24T05:44:13.648Z,73.47
2019-01-24T05:46:44.527Z,69.00
2019-01-24T05:49:15.391Z,71.87
2019-01-24T05:51:46.328Z,74.40
2019-01-24T05:54:17.086Z,71.62
2019-01-24T05:56:47.844Z,67.00
2019-01-24T05:59:18.662Z,68.87
2019-01-24T06:01:50.419Z,71.47
2019-01-24T06:04:21.527Z,70.00
2019-01-24T06:06:52.275Z,71.40
2019-01-24T06:09:23.110Z,66.92
2019-01-24T06:11:54.279Z,69.00
2019-01-24T06:14:25.853Z,70.03
2019-01-24T06:16:56.758Z,70.87
2019-01-24T06:19:27.564Z,69.30
2019-01-24T06:21:58.421Z,68.25
2019-01-24T06:24:29.185Z,71.72
2019-01-24T06:27:00.124Z,69.45
2019-01-24T06:29:31.840Z,74.73
2019-01-24T06:32:02.640Z,70.28
2019-01-24T06:34:33.600Z,67.80
2019-01-24T06:37:04.494Z,69.25
2019-01-24T06:39:35.334Z,72.67
2019-01-24T06:42:06.102Z,70.03
2019-01-24T06:44:37.192Z,71.30
2019-01-24T06:47:08.307Z,73.65
2019-01-24T06:49:39.390Z,72.35
2019-01-24T06:52:10.443Z,72.42
2019-01-24T06:54:41.167Z,72.40
2019-01-24T06:57:12.608Z,74.20
2019-01-24T06:59:43.375Z,74.27
2019-01-24T07:02:15.247Z,70.17
2019-01-24T07:04:46.179Z,70.95
2019-01-24T07:07:16.931Z,69.15
2019-01-24T07:09:48.025Z,71.65
2019-01-24T07:12:18.790Z,71.42
2019-01-24T07:14:49.664Z,70.50
2019-01-24T07:17:20.441Z,66.85
2019-01-24T07:19:51.555Z,69.00
2019-01-24T07:22:22.303Z,72.80
2019-01-24T07:24:53.438Z,71.00
2019-01-24T07:27:24.293Z,69.30
2019-01-24T07:29:56.467Z,71.50
2019-01-24T07:32:28.318Z,72.50
2019-01-24T07:34:59.130Z,72.50
2019-01-24T07:37:29.903Z,70.17
2019-01-24T07:40:00.990Z,71.82
2019-01-24T07:42:31.767Z,71.57
2019-01-24T07:45:02.660Z,70.45
2019-01-24T07:47:33.874Z,69.15
2019-01-24T07:50:05.541Z,69.30
2019-01-24T07:52:36.323Z,70.57
2019-01-24T07:55:07.860Z,69.20
2019-01-24T07:57:38.854Z,71.87
2019-01-24T08:00:16.870Z,72.63
2019-01-24T08:02:47.716Z,67.50
2019-01-24T08:05:18.760Z,67.75
2019-01-24T08:07:49.976Z,68.17
2019-01-24T08:10:21.179Z,69.80
2019-01-24T08:12:52.045Z,67.55
2019-01-24T08:15:22.958Z,65.67
2019-01-24T08:17:54.441Z,67.85
2019-01-24T08:20:26.432Z,66.30
2019-01-24T08:22:57.301Z,71.12
2019-01-24T08:25:28.462Z,67.62
2019-01-24T08:27:59.309Z,68.22
2019-01-24T08:30:31.898Z,69.15
2019-01-24T08:33:03.023Z,69.82
2019-01-24T08:35:33.870Z,69.53
2019-01-24T08:38:05.358Z,67.27
2019-01-24T08:40:36.159Z,71.70
2019-01-24T08:43:07.300Z,69.60
2019-01-24T08:45:38.169Z,72.60
2019-01-24T08:48:09.109Z,71.65
2019-01-24T08:50:39.931Z,71.75
2019-01-24T08:53:10.758Z,72.15
2019-01-24T08:55:43.353Z,77.55
2019-01-24T08:58:14.529Z,79.62
2019-01-24T09:00:45.352Z,90.65
2019-01-24T09:03:16.471Z,86.50
2019-01-24T09:05:47.613Z,92.42
2019-01-24T09:08:18.502Z,92.97
2019-01-24T09:10:49.537Z,90.62
2019-01-24T09:13:20.775Z,86.10
2019-01-24T09:15:51.580Z,88.25
2019-01-24T09:18:22.724Z,89.07
2019-01-24T09:20:53.455Z,84.52
2019-01-24T09:23:24.223Z,85.75
2019-01-24T09:25:55.290Z,82.35
2019-01-24T09:28:26.116Z,84.03
2019-01-24T09:30:56.900Z,83.75
2019-01-24T09:33:27.686Z,83.65
2019-01-24T09:35:58.508Z,86.37
2019-01-24T09:38:29.289Z,83.90
2019-01-24T09:41:00.124Z,85.75
2019-01-24T09:43:31.087Z,88.95
2019-01-24T09:46:01.900Z,86.57
2019-01-24T09:48:33.096Z,85.57
2019-01-24T09:51:03.873Z,84.90
2019-01-24T09:53:34.669Z,90.77
2019-01-24T09:56:05.876Z,90.72
2019-01-24T09:58:36.675Z,85.80
2019-01-24T10:01:07.538Z,89.40
2019-01-24T10:03:38.466Z,81.50
2019-01-24T10:06:19.790Z,83.60
2019-01-24T10:08:50.521Z,79.70
2019-01-24T10:11:23.540Z,84.85
2019-01-24T10:13:54.520Z,80.60
2019-01-24T10:16:25.664Z,82.40
2019-01-24T10:18:56.440Z,79.58
2019-01-24T10:21:27.254Z,83.80
2019-01-24T10:23:58.391Z,79.15
2019-01-24T10:26:29.558Z,81.20
2019-01-24T10:29:00.578Z,79.22
2019-01-24T10:31:31.668Z,81.75
2019-01-24T10:34:02.892Z,79.77
2019-01-24T10:36:33.883Z,78.40
2019-01-24T10:39:08.371Z,77.75
2019-01-24T10:41:39.248Z,82.23
2019-01-24T10:44:10.347Z,83.58
2019-01-24T10:46:41.780Z,80.22
2019-01-24T10:49:12.681Z,88.37
2019-01-24T10:51:43.387Z,83.17
2019-01-24T10:54:15.211Z,80.72
2019-01-24T10:56:45.952Z,85.50
2019-01-24T10:59:16.719Z,85.07
2019-01-24T11:01:48.608Z,84.17
2019-01-24T11:04:19.435Z,85.17
2019-01-24T11:06:50.631Z,82.05
2019-01-24T11:09:21.623Z,81.72
2019-01-24T11:11:52.379Z,81.63
2019-01-24T11:14:23.793Z,87.60
2019-01-24T11:16:54.553Z,85.75
2019-01-24T11:19:25.693Z,82.78
2019-01-24T11:21:56.519Z,86.17
2019-01-24T11:24:27.266Z,86.65
2019-01-24T11:26:59.129Z,83.20
2019-01-24T11:29:29.949Z,85.53
2019-01-24T11:32:00.992Z,85.15
2019-01-24T11:34:31.906Z,82.97
2019-01-24T11:37:02.652Z,79.47
2019-01-24T11:39:34.234Z,80.20
2019-01-24T11:42:05.263Z,79.67
2019-01-24T11:44:36.987Z,78.45
2019-01-24T11:47:08.162Z,80.35
2019-01-24T11:49:39.004Z,81.82
2019-01-24T11:52:09.839Z,79.92
2019-01-24T11:54:40.671Z,80.77
2019-01-24T11:57:11.842Z,78.83
2019-01-24T11:59:42.668Z,75.40
2019-01-24T12:02:13.434Z,82.22
2019-01-24T12:04:44.544Z,75.57
2019-01-24T12:07:15.715Z,80.00
2019-01-24T12:09:46.924Z,77.35
2019-01-24T12:12:17.704Z,77.80
2019-01-24T12:14:48.853Z,78.43
2019-01-24T12:17:19.958Z,79.87
2019-01-24T12:19:51.181Z,79.25
2019-01-24T12:22:21.920Z,83.93
2019-01-24T12:24:52.697Z,83.87
2019-01-24T12:27:23.827Z,81.28
2019-01-24T12:29:54.640Z,82.17
2019-01-24T12:32:25.364Z,79.17
2019-01-24T12:34:56.252Z,84.90
2019-01-24T12:37:27.344Z,82.65
2019-01-24T12:39:58.138Z,81.05
2019-01-24T12:42:29.010Z,83.22
2019-01-24T12:44:59.823Z,81.47
2019-01-24T12:47:30.904Z,80.55
2019-01-24T12:50:01.697Z,82.60
2019-01-24T12:52:32.451Z,82.95
2019-01-24T12:55:03.322Z,85.07
2019-01-24T12:57:34.374Z,85.55
2019-01-24T13:00:07.807Z,84.17
2019-01-24T13:02:38.676Z,84.90
2019-01-24T13:05:10.287Z,86.07
2019-01-24T13:07:41.028Z,85.05
2019-01-24T13:10:15.231Z,87.80
2019-01-24T13:12:46.537Z,83.03
2019-01-24T13:15:18.751Z,85.60
2019-01-24T13:17:50.640Z,84.55
2019-01-24T13:20:21.587Z,86.23
2019-01-24T13:22:52.656Z,84.03
2019-01-24T13:25:26.058Z,89.90
2019-01-24T13:27:57.144Z,81.57
2019-01-24T13:30:30.800Z,86.22
2019-01-24T13:33:02.393Z,86.40
2019-01-24T13:35:33.507Z,81.47
2019-01-24T13:38:05.378Z,82.43
2019-01-24T13:40:36.846Z,84.17
2019-01-24T13:43:08.094Z,84.90
2019-01-24T13:45:41.912Z,85.20
2019-01-24T13:48:12.984Z,84.50
2019-01-24T13:50:44.147Z,83.87
2019-01-24T13:53:15.935Z,82.30
2019-01-24T13:55:46.735Z,82.53
2019-01-24T13:58:17.795Z,82.57
2019-01-24T14:00:49.565Z,80.57
2019-01-24T14:03:47.947Z,83.95
2019-01-24T14:06:18.683Z,82.12
2019-01-24T14:08:49.651Z,80.10
2019-01-24T14:11:20.754Z,83.40
2019-01-24T14:13:51.530Z,82.47
2019-01-24T14:16:22.463Z,81.30
2019-01-24T14:18:53.843Z,83.65
2019-01-24T14:21:25.754Z,80.80
2019-01-24T14:23:57.569Z,82.45
2019-01-24T14:26:28.436Z,79.62
2019-01-24T14:28:59.563Z,81.45
2019-01-24T14:31:30.518Z,80.75
2019-01-24T14:34:01.449Z,80.77
2019-01-24T14:36:32.571Z,80.30
2019-01-24T14:39:05.191Z,87.47
2019-01-24T14:41:35.966Z,84.62
2019-01-24T14:44:06.798Z,84.40
2019-01-24T14:46:37.771Z,78.00
2019-01-24T14:49:08.669Z,79.85
2019-01-24T14:51:39.779Z,80.80
2019-01-24T14:54:22.399Z,77.82
2019-01-24T14:56:53.631Z,81.32
2019-01-24T14:59:24.518Z,77.73
2019-01-24T15:01:55.379Z,80.60
2019-01-24T15:04:26.144Z,79.47
2019-01-24T15:06:57.163Z,78.77
2019-01-24T15:09:28.471Z,79.27
2019-01-24T15:11:59.583Z,78.30
2019-01-24T15:14:30.303Z,80.35
2019-01-24T15:17:01.365Z,82.73
2019-01-24T15:19:32.147Z,90.97
2019-01-24T15:22:02.929Z,78.85
2019-01-24T15:24:33.707Z,78.85
2019-01-24T15:27:04.917Z,83.00
2019-01-24T15:29:35.704Z,80.90
2019-01-24T15:32:06.958Z,80.25
2019-01-24T15:34:37.696Z,82.37
2019-01-24T15:37:08.521Z,83.60
2019-01-24T15:39:39.699Z,78.85
2019-01-24T15:42:10.435Z,82.00
2019-01-24T15:44:41.276Z,83.30
2019-01-24T15:47:12.448Z,81.00
2019-01-24T15:49:43.384Z,85.30
2019-01-24T15:52:14.096Z,79.37
2019-01-24T15:54:45.209Z,81.65
2019-01-24T15:57:16.000Z,81.28
2019-01-24T15:59:46.859Z,80.45
2019-01-24T16:02:17.617Z,77.85
2019-01-24T16:04:48.362Z,82.42
2019-01-24T16:07:19.510Z,79.20
2019-01-24T16:09:50.610Z,84.23
2019-01-24T16:12:21.340Z,79.85
2019-01-24T16:14:52.230Z,82.12
2019-01-24T16:17:23.249Z,80.35
2019-01-24T16:19:54.070Z,81.78
2019-01-24T16:22:26.231Z,76.65
2019-01-24T16:24:57.040Z,80.28
2019-01-24T16:27:27.862Z,83.07
2019-01-24T16:29:58.678Z,80.50
2019-01-24T16:32:29.392Z,80.03
2019-01-24T16:35:00.540Z,82.30
2019-01-24T16:37:31.367Z,80.63
2019-01-24T16:40:02.104Z,84.70
2019-01-24T16:42:33.148Z,80.43
2019-01-24T16:45:05.040Z,81.50
2019-01-24T16:47:35.805Z,78.57
2019-01-24T16:50:08.268Z,80.97
2019-01-24T16:52:39.056Z,78.42
2019-01-24T16:55:11.847Z,81.95
2019-01-24T16:57:43.039Z,78.17
2019-01-24T17:00:43.828Z,77.80
2019-01-24T17:03:14.578Z,77.45
2019-01-24T17:05:45.479Z,78.35
2019-01-24T17:08:17.263Z,79.80
2019-01-24T17:10:48.106Z,77.35
2019-01-24T17:13:18.907Z,79.55
2019-01-24T17:15:50.243Z,77.40
2019-01-24T17:18:21.386Z,78.72
2019-01-24T17:20:52.452Z,81.42
2019-01-24T17:23:23.268Z,82.17
2019-01-24T17:25:54.070Z,79.80
2019-01-24T17:28:25.125Z,81.43
2019-01-24T17:30:55.851Z,81.17
2019-01-24T17:33:26.651Z,79.37
2019-01-24T17:35:57.451Z,79.90
2019-01-24T17:38:28.265Z,80.97
2019-01-24T17:40:58.988Z,78.62
2019-01-24T17:43:30.059Z,80.87
2019-01-24T17:46:00.906Z,77.00
2019-01-24T17:48:31.723Z,76.02
2019-01-24T17:51:02.577Z,76.37
2019-01-24T17:53:33.600Z,78.20
2019-01-24T17:56:04.969Z,77.00
2019-01-24T17:58:35.715Z,75.22
2019-01-24T18:01:06.988Z,76.47
2019-01-24T18:03:37.917Z,75.92
2019-01-24T18:06:08.802Z,83.70
2019-01-24T18:08:40.192Z,77.35
2019-01-24T18:11:11.470Z,76.83
2019-01-24T18:13:42.555Z,77.55
2019-01-24T18:16:13.685Z,76.55
2019-01-24T18:18:44.602Z,81.35
2019-01-24T18:21:15.547Z,81.30
2019-01-24T18:23:47.309Z,79.67
2019-01-24T18:26:18.026Z,79.10
2019-01-24T18:28:49.792Z,79.17
2019-01-24T18:31:20.891Z,77.10
2019-01-24T18:33:52.121Z,79.35
2019-01-24T18:36:23.387Z,76.90
2019-01-24T18:38:54.290Z,81.57
2019-01-24T18:41:25.443Z,77.58
2019-01-24T18:43:57.203Z,78.02
2019-01-24T18:46:28.111Z,79.80
2019-01-24T18:48:59.787Z,78.57
2019-01-24T18:51:31.114Z,80.70
2019-01-24T18:54:02.249Z,79.07
2019-01-24T18:56:33.315Z,80.25
2019-01-24T18:59:04.434Z,80.55
2019-01-24T19:01:35.262Z,78.17
2019-01-24T19:04:07.383Z,80.62
2019-01-24T19:06:38.275Z,78.87
2019-01-24T19:09:09.547Z,82.12
2019-01-24T19:11:40.430Z,78.70
2019-01-24T19:14:11.222Z,79.50
2019-01-24T19:16:42.013Z,78.33
2019-01-24T19:19:12.735Z,79.87
2019-01-24T19:21:43.677Z,75.90
2019-01-24T19:24:15.207Z,83.70
2019-01-24T19:26:47.331Z,79.20
2019-01-24T19:29:18.091Z,78.00
2019-01-24T19:31:49.187Z,80.60
2019-01-24T19:34:19.922Z,80.12
2019-01-24T19:36:51.647Z,77.15
2019-01-24T19:39:22.455Z,80.28
2019-01-24T19:41:53.275Z,79.22
2019-01-24T19:44:24.056Z,79.12
2019-01-24T19:46:54.966Z,80.32
2019-01-24T19:49:25.775Z,81.50
2019-01-24T19:51:56.868Z,78.47
2019-01-24T19:54:28.767Z,82.90
2019-01-24T19:57:00.575Z,83.58
2019-01-24T19:59:31.604Z,83.17
2019-01-24T20:02:02.427Z,82.50
2019-01-24T20:04:33.304Z,82.30
2019-01-24T20:07:04.231Z,79.17
2019-01-24T20:09:35.059Z,77.78
2019-01-24T20:12:06.282Z,84.55
2019-01-24T20:14:37.327Z,78.53
2019-01-24T20:17:08.808Z,82.95
2019-01-24T20:19:39.566Z,81.83
2019-01-24T20:22:10.765Z,81.00
2019-01-24T20:24:41.803Z,80.30
2019-01-24T20:27:12.653Z,81.00
2019-01-24T20:29:43.400Z,81.50
2019-01-24T20:32:15.240Z,82.55
2019-01-24T20:34:46.384Z,81.02
2019-01-24T20:37:17.506Z,87.82
2019-01-24T20:39:48.303Z,79.27
2019-01-24T20:42:19.055Z,84.07
2019-01-24T20:44:50.717Z,86.12
2019-01-24T20:47:21.496Z,87.33
2019-01-24T20:49:52.565Z,85.77
2019-01-24T20:52:23.704Z,85.65
2019-01-24T20:54:54.832Z,83.30
2019-01-24T20:57:25.616Z,86.42
2019-01-24T20:59:56.680Z,88.15
2019-01-24T21:02:27.528Z,87.72
2019-01-24T21:04:58.296Z,86.35
2019-01-24T21:07:29.151Z,84.55
2019-01-24T21:09:59.989Z,88.45
2019-01-24T21:12:31.064Z,83.30
2019-01-24T21:15:01.815Z,84.50
2019-01-24T21:17:32.666Z,86.97
2019-01-24T21:20:04.273Z,85.90
2019-01-24T21:22:36.097Z,85.10
2019-01-24T21:25:08.510Z,83.97
2019-01-24T21:27:39.426Z,86.47
2019-01-24T21:30:14.699Z,93.10
2019-01-24T21:32:46.126Z,88.80
2019-01-24T21:35:17.096Z,86.87
2019-01-24T21:37:48.327Z,88.55
2019-01-24T21:40:20.137Z,88.17
2019-01-24T21:42:51.140Z,88.87
2019-01-24T21:45:24.703Z,89.67
2019-01-24T21:47:55.551Z,88.22
2019-01-24T21:50:27.296Z,93.70
2019-01-24T21:52:58.343Z,94.42
2019-01-24T21:55:29.976Z,98.12
2019-01-24T21:58:01.305Z,96.42
2019-01-24T22:00:33.483Z,98.27
2019-01-24T22:03:04.911Z,92.72
2019-01-24T22:05:35.995Z,94.67
2019-01-24T22:08:07.354Z,93.70
2019-01-24T22:10:38.572Z,99.47
2019-01-24T22:13:09.531Z,94.10
2019-01-24T22:15:40.873Z,98.90
2019-01-24T22:18:11.763Z,95.87
2019-01-24T22:20:42.591Z,96.92
2019-01-24T22:23:13.335Z,96.20
2019-01-24T22:25:44.271Z,96.57
2019-01-24T22:28:15.119Z,106.65
2019-01-24T22:30:49.419Z,99.13
2019-01-24T22:33:20.595Z,95.20
2019-01-24T22:35:51.536Z,97.40
2019-01-24T22:38:22.629Z,98.55
2019-01-24T22:40:53.449Z,89.03
2019-01-24T22:43:24.448Z,91.30
2019-01-24T22:45:55.274Z,91.80
2019-01-24T22:48:26.102Z,94.87
2019-01-24T22:50:57.250Z,87.78
2019-01-24T22:53:28.115Z,92.57
2019-01-24T22:55:59.156Z,92.62
2019-01-24T22:58:29.883Z,90.32
2019-01-24T23:01:32.199Z,90.70
2019-01-24T23:04:21.714Z,93.20
2019-01-24T23:06:53.560Z,92.17
2019-01-24T23:09:24.348Z,92.78
2019-01-24T23:11:55.163Z,92.90
2019-01-24T23:14:26.322Z,91.35
2019-01-24T23:16:57.174Z,94.63
2019-01-24T23:19:27.996Z,93.53
2019-01-24T23:21:59.015Z,95.57
2019-01-24T23:24:29.763Z,96.30
2019-01-24T23:27:00.826Z,94.05
2019-01-24T23:29:31.655Z,96.00
2019-01-24T23:32:02.426Z,94.52
2019-01-24T23:34:33.242Z,94.42
2019-01-24T23:37:04.490Z,97.85
2019-01-24T23:39:35.280Z,92.90
2019-01-24T23:42:06.439Z,95.67
2019-01-24T23:44:37.299Z,97.75
2019-01-24T23:47:08.207Z,104.80
2019-01-24T23:49:38.984Z,95.55
2019-01-24T23:52:10.883Z,96.72
2019-01-24T23:54:41.851Z,97.73
2019-01-24T23:57:13.019Z,92.03
2019-01-24T23:59:43.759Z,96.53
